Terminal Aerodrome Forecast
Issued by NWS

Home | Current Version | Previous Version | Text Only | Print | Product List | Glossary On
Versions: 1 2 3 4 5 6 7 8 9 10 11 12 13 14 15 16 17 18 19 20 21 22 23 24 25 26 27 28 29 30 31 32
000
FTUS43 KDLH 190500
TAFHIB
TAF
KHIB 190520Z 1906/2006 14008KT P6SM OVC003 WS020/20040KT
     FM190700 18010KT P6SM BKN003 WS020/21050KT
     FM191200 19011G19KT P6SM VCSH BKN005
     FM191500 20013G25KT P6SM -SHRA SCT015 BKN025
     FM200100 21004KT 4SM BR VCSH OVC007
     FM200300 22004KT 4SM BR VCSH OVC003=

USA.gov is the U.S. government's official web portal to all federal, state and local government web resources and services.